sensor_id;sensor_type;location;lat;lon;timestamp;pressure;altitude;pressure_sealevel;temperature;humidity
13456;BME280;6800;50.940;6.940;2023-09-18T00:01:08;99919.41;;;27.73;53.92
13456;BME280;6800;50.940;6.940;2023-09-18T00:05:10;99908.44;;;27.74;54.29
13456;BME280;6800;50.940;6.940;2023-09-18T00:09:11;99900.28;;;27.63;54.39
13456;BME280;6800;50.940;6.940;2023-09-18T00:13:15;99897.56;;;27.69;54.23
13456;BME280;6800;50.940;6.940;2023-09-18T00:17:17;99896.78;;;27.62;54.04
13456;BME280;6800;50.940;6.940;2023-09-18T00:21:18;99893.81;;;27.70;53.92
13456;BME280;6800;50.940;6.940;2023-09-18T00:25:19;99878.97;;;27.68;53.83
13456;BME280;6800;50.940;6.940;2023-09-18T00:29:21;99871.44;;;27.58;54.07
13456;BME280;6800;50.940;6.940;2023-09-18T00:33:23;99872.25;;;27.59;54.31
13456;BME280;6800;50.940;6.940;2023-09-18T00:37:24;99866.09;;;27.52;53.88
13456;BME280;6800;50.940;6.940;2023-09-18T00:41:26;99854.72;;;27.56;54.00
13456;BME280;6800;50.940;6.940;2023-09-18T00:45:27;99849.78;;;27.53;53.63
13456;BME280;6800;50.940;6.940;2023-09-18T00:49:28;99841.97;;;27.52;53.56
13456;BME280;6800;50.940;6.940;2023-09-18T00:53:30;99828.66;;;27.39;53.88
13456;BME280;6800;50.940;6.940;2023-09-18T00:57:32;99848.53;;;27.56;53.62
13456;BME280;6800;50.940;6.940;2023-09-18T01:01:34;99839.06;;;27.53;53.36
13456;BME280;6800;50.940;6.940;2023-09-18T01:05:35;99848.25;;;27.39;53.80
13456;BME280;6800;50.940;6.940;2023-09-18T01:09:38;99847.88;;;27.29;54.17
13456;BME280;6800;50.940;6.940;2023-09-18T01:13:56;99829.47;;;27.33;54.08
13456;BME280;6800;50.940;6.940;2023-09-18T01:17:59;99819.34;;;27.41;53.78
13456;BME280;6800;50.940;6.940;2023-09-18T01:22:01;99824.44;;;27.49;53.36
13456;BME280;6800;50.940;6.940;2023-09-18T01:26:02;99815.00;;;27.40;53.39
13456;BME280;6800;50.940;6.940;2023-09-18T01:30:04;99814.22;;;27.33;53.79
13456;BME280;6800;50.940;6.940;2023-09-18T01:34:05;99810.72;;;27.39;53.17
13456;BME280;6800;50.940;6.940;2023-09-18T01:38:08;99821.06;;;27.29;53.81
13456;BME280;6800;50.940;6.940;2023-09-18T01:42:12;99809.06;;;27.32;53.88
13456;BME280;6800;50.940;6.940;2023-09-18T01:46:14;99797.31;;;27.33;53.38
13456;BME280;6800;50.940;6.940;2023-09-18T01:50:16;99786.81;;;27.31;53.49
13456;BME280;6800;50.940;6.940;2023-09-18T01:54:17;99778.97;;;27.30;53.78
13456;BME280;6800;50.940;6.940;2023-09-18T01:58:19;99774.41;;;27.37;53.44
13456;BME280;6800;50.940;6.940;2023-09-18T02:02:20;99771.41;;;27.20;53.82
13456;BME280;6800;50.940;6.940;2023-09-18T02:06:32;99773.22;;;27.26;53.81
13456;BME280;6800;50.940;6.940;2023-09-18T02:10:34;99758.28;;;27.43;53.18
13456;BME280;6800;50.940;6.940;2023-09-18T02:14:36;99758.78;;;27.27;53.71
13456;BME280;6800;50.940;6.940;2023-09-18T02:18:38;99799.41;;;26.93;54.77
13456;BME280;6800;50.940;6.940;2023-09-18T02:22:39;99803.06;;;27.05;54.66
13456;BME280;6800;50.940;6.940;2023-09-18T02:26:41;99812.72;;;26.55;55.98
13456;BME280;6800;50.940;6.940;2023-09-18T02:30:42;99788.06;;;26.97;55.00
13456;BME280;6800;50.940;6.940;2023-09-18T02:34:45;99776.22;;;26.67;56.01
13456;BME280;6800;50.940;6.940;2023-09-18T02:38:46;99772.69;;;26.80;56.19
13456;BME280;6800;50.940;6.940;2023-09-18T02:42:48;99750.31;;;26.55;57.05
13456;BME280;6800;50.940;6.940;2023-09-18T02:46:49;99728.41;;;26.71;56.90
13456;BME280;6800;50.940;6.940;2023-09-18T02:50:50;99725.41;;;26.92;56.80
13456;BME280;6800;50.940;6.940;2023-09-18T02:54:52;99707.19;;;27.07;57.46
13456;BME280;6800;50.940;6.940;2023-09-18T02:58:53;99694.00;;;27.05;56.99
13456;BME280;6800;50.940;6.940;2023-09-18T03:02:55;99682.88;;;27.02;57.11
13456;BME280;6800;50.940;6.940;2023-09-18T03:06:57;99688.72;;;26.92;57.36
13456;BME280;6800;50.940;6.940;2023-09-18T03:10:58;99685.56;;;27.02;57.74
13456;BME280;6800;50.940;6.940;2023-09-18T03:15:00;99679.59;;;27.00;58.32
13456;BME280;6800;50.940;6.940;2023-09-18T03:19:01;99671.56;;;27.00;57.58
13456;BME280;6800;50.940;6.940;2023-09-18T03:23:03;99677.47;;;26.84;59.61
13456;BME280;6800;50.940;6.940;2023-09-18T03:27:04;99736.13;;;26.48;60.59
13456;BME280;6800;50.940;6.940;2023-09-18T03:31:06;99731.31;;;26.18;61.53
13456;BME280;6800;50.940;6.940;2023-09-18T03:35:09;99737.50;;;26.06;62.44
13456;BME280;6800;50.940;6.940;2023-09-18T03:39:20;99728.03;;;26.16;62.29
13456;BME280;6800;50.940;6.940;2023-09-18T03:43:21;99718.94;;;26.17;61.47
13456;BME280;6800;50.940;6.940;2023-09-18T03:47:22;99708.88;;;26.13;60.44
13456;BME280;6800;50.940;6.940;2023-09-18T03:51:24;99694.59;;;26.32;59.97
13456;BME280;6800;50.940;6.940;2023-09-18T03:55:25;99684.72;;;26.33;59.74
13456;BME280;6800;50.940;6.940;2023-09-18T03:59:27;99686.75;;;26.37;59.73
13456;BME280;6800;50.940;6.940;2023-09-18T04:03:28;99682.44;;;26.36;60.17
13456;BME280;6800;50.940;6.940;2023-09-18T04:07:30;99697.78;;;26.09;60.52
13456;BME280;6800;50.940;6.940;2023-09-18T04:11:32;99695.88;;;26.29;59.94
13456;BME280;6800;50.940;6.940;2023-09-18T04:15:34;99676.38;;;26.09;60.09
13456;BME280;6800;50.940;6.940;2023-09-18T04:19:39;99676.72;;;26.26;59.86
13456;BME280;6800;50.940;6.940;2023-09-18T04:23:40;99669.50;;;26.26;59.86
13456;BME280;6800;50.940;6.940;2023-09-18T04:27:42;99680.91;;;26.09;60.50
13456;BME280;6800;50.940;6.940;2023-09-18T04:31:43;99690.53;;;26.23;60.21
13456;BME280;6800;50.940;6.940;2023-09-18T04:35:45;99680.47;;;26.05;60.82
13456;BME280;6800;50.940;6.940;2023-09-18T04:39:46;99671.63;;;26.11;60.67
13456;BME280;6800;50.940;6.940;2023-09-18T04:43:48;99664.78;;;26.22;60.13
13456;BME280;6800;50.940;6.940;2023-09-18T04:47:49;99665.91;;;25.95;60.88
13456;BME280;6800;50.940;6.940;2023-09-18T04:51:51;99666.91;;;26.00;60.96
13456;BME280;6800;50.940;6.940;2023-09-18T04:55:53;99679.41;;;26.19;60.48
13456;BME280;6800;50.940;6.940;2023-09-18T04:59:54;99679.66;;;26.05;61.19
13456;BME280;6800;50.940;6.940;2023-09-18T05:04:15;99670.25;;;25.89;61.43
13456;BME280;6800;50.940;6.940;2023-09-18T05:08:17;99677.00;;;25.98;61.58
13456;BME280;6800;50.940;6.940;2023-09-18T05:12:18;99680.47;;;26.05;60.96
13456;BME280;6800;50.940;6.940;2023-09-18T05:16:20;99678.97;;;26.29;60.26
13456;BME280;6800;50.940;6.940;2023-09-18T05:20:21;99687.25;;;26.21;60.57
13456;BME280;6800;50.940;6.940;2023-09-18T05:24:25;99696.31;;;26.13;60.90
13456;BME280;6800;50.940;6.940;2023-09-18T05:28:28;99648.78;;;26.02;61.26
13456;BME280;6800;50.940;6.940;2023-09-18T05:32:30;99675.63;;;26.40;59.96
13456;BME280;6800;50.940;6.940;2023-09-18T05:36:31;99706.19;;;26.19;60.37
13456;BME280;6800;50.940;6.940;2023-09-18T05:40:33;99723.09;;;26.13;60.37
13456;BME280;6800;50.940;6.940;2023-09-18T05:44:34;99731.94;;;25.94;61.28
13456;BME280;6800;50.940;6.940;2023-09-18T05:48:35;99724.75;;;26.01;60.85
13456;BME280;6800;50.940;6.940;2023-09-18T05:52:37;99722.06;;;26.14;60.24
13456;BME280;6800;50.940;6.940;2023-09-18T05:56:38;99737.50;;;26.06;59.70
13456;BME280;6800;50.940;6.940;2023-09-18T06:00:40;99729.25;;;26.20;59.33
13456;BME280;6800;50.940;6.940;2023-09-18T06:04:41;99716.03;;;26.25;58.58
13456;BME280;6800;50.940;6.940;2023-09-18T06:08:42;99723.09;;;26.13;58.52
13456;BME280;6800;50.940;6.940;2023-09-18T06:12:45;99749.84;;;25.94;58.67
13456;BME280;6800;50.940;6.940;2023-09-18T06:16:50;99753.13;;;26.15;57.65
13456;BME280;6800;50.940;6.940;2023-09-18T06:20:52;99747.59;;;26.17;57.01
13456;BME280;6800;50.940;6.940;2023-09-18T06:24:56;99710.63;;;26.39;56.56
13456;BME280;6800;50.940;6.940;2023-09-18T06:28:57;99717.72;;;26.20;56.57
13456;BME280;6800;50.940;6.940;2023-09-18T06:32:59;99735.03;;;26.62;55.58
13456;BME280;6800;50.940;6.940;2023-09-18T06:37:01;99735.56;;;26.33;55.74
13456;BME280;6800;50.940;6.940;2023-09-18T06:41:04;99730.81;;;26.41;55.70
13456;BME280;6800;50.940;6.940;2023-09-18T06:45:06;99717.09;;;26.62;55.55
13456;BME280;6800;50.940;6.940;2023-09-18T06:49:08;99709.88;;;26.69;55.12
13456;BME280;6800;50.940;6.940;2023-09-18T06:53:09;99718.44;;;26.91;54.56
13456;BME280;6800;50.940;6.940;2023-09-18T06:57:11;99732.84;;;26.90;54.15
13456;BME280;6800;50.940;6.940;2023-09-18T07:01:13;99737.06;;;27.04;53.63
13456;BME280;6800;50.940;6.940;2023-09-18T07:05:16;99746.75;;;26.67;54.29
13456;BME280;6800;50.940;6.940;2023-09-18T07:09:17;99739.53;;;27.12;53.25
13456;BME280;6800;50.940;6.940;2023-09-18T07:13:19;99749.22;;;27.06;52.69
13456;BME280;6800;50.940;6.940;2023-09-18T07:17:21;99763.13;;;27.53;52.01
13456;BME280;6800;50.940;6.940;2023-09-18T07:21:22;99773.38;;;27.62;51.56
13456;BME280;6800;50.940;6.940;2023-09-18T07:25:23;99769.34;;;27.78;50.92
13456;BME280;6800;50.940;6.940;2023-09-18T07:29:25;99775.16;;;27.93;50.93
13456;BME280;6800;50.940;6.940;2023-09-18T07:33:26;99778.84;;;27.49;52.17
13456;BME280;6800;50.940;6.940;2023-09-18T07:37:28;99791.47;;;27.73;50.69
13456;BME280;6800;50.940;6.940;2023-09-18T07:41:29;99800.91;;;27.51;50.69
13456;BME280;6800;50.940;6.940;2023-09-18T07:45:31;99815.50;;;27.87;49.91
13456;BME280;6800;50.940;6.940;2023-09-18T07:49:33;99820.19;;;27.66;49.98
13456;BME280;6800;50.940;6.940;2023-09-18T07:53:34;99801.78;;;27.70;50.10
13456;BME280;6800;50.940;6.940;2023-09-18T07:57:36;99810.44;;;27.72;49.84
13456;BME280;6800;50.940;6.940;2023-09-18T08:01:38;99813.53;;;27.44;50.50
13456;BME280;6800;50.940;6.940;2023-09-18T08:05:40;99822.09;;;27.59;50.12
13456;BME280;6800;50.940;6.940;2023-09-18T08:09:41;99828.47;;;27.90;49.20
13456;BME280;6800;50.940;6.940;2023-09-18T08:13:43;99846.88;;;27.17;50.63
13456;BME280;6800;50.940;6.940;2023-09-18T08:17:45;99835.84;;;27.94;49.30
13456;BME280;6800;50.940;6.940;2023-09-18T08:21:48;99824.97;;;28.14;48.30
13456;BME280;6800;50.940;6.940;2023-09-18T08:25:49;99838.00;;;27.61;49.07
13456;BME280;6800;50.940;6.940;2023-09-18T08:29:52;99832.91;;;27.77;48.99
13456;BME280;6800;50.940;6.940;2023-09-18T08:33:53;99837.56;;;27.89;48.85
13456;BME280;6800;50.940;6.940;2023-09-18T08:37:55;99843.03;;;27.44;49.96
13456;BME280;6800;50.940;6.940;2023-09-18T08:42:03;99840.84;;;27.91;48.67
13456;BME280;6800;50.940;6.940;2023-09-18T08:46:05;99840.50;;;27.56;49.31
13456;BME280;6800;50.940;6.940;2023-09-18T08:50:08;99862.13;;;27.61;49.84
13456;BME280;6800;50.940;6.940;2023-09-18T08:54:11;99857.97;;;28.14;47.94
13456;BME280;6800;50.940;6.940;2023-09-18T08:58:13;99850.16;;;28.13;48.55
13456;BME280;6800;50.940;6.940;2023-09-18T09:02:16;99838.16;;;28.58;47.10
13456;BME280;6800;50.940;6.940;2023-09-18T09:06:18;99847.56;;;28.67;47.01
13456;BME280;6800;50.940;6.940;2023-09-18T09:10:20;99852.28;;;28.47;46.78
13456;BME280;6800;50.940;6.940;2023-09-18T09:14:21;99847.34;;;28.69;46.45
13456;BME280;6800;50.940;6.940;2023-09-18T09:18:29;99863.81;;;28.29;46.76
13456;BME280;6800;50.940;6.940;2023-09-18T09:22:33;99872.94;;;28.28;46.83
13456;BME280;6800;50.940;6.940;2023-09-18T09:26:35;99873.72;;;28.11;47.61
13456;BME280;6800;50.940;6.940;2023-09-18T09:30:37;99867.50;;;28.53;46.17
13456;BME280;6800;50.940;6.940;2023-09-18T09:34:41;99859.38;;;28.41;46.59
13456;BME280;6800;50.940;6.940;2023-09-18T09:38:42;99854.09;;;28.53;45.92
13456;BME280;6800;50.940;6.940;2023-09-18T09:42:46;99860.63;;;28.82;45.68
13456;BME280;6800;50.940;6.940;2023-09-18T09:46:48;99851.22;;;28.73;45.07
13456;BME280;6800;50.940;6.940;2023-09-18T09:50:51;99849.78;;;28.88;44.83
13456;BME280;6800;50.940;6.940;2023-09-18T09:54:53;99843.75;;;29.22;44.64
13456;BME280;6800;50.940;6.940;2023-09-18T09:59:04;99842.19;;;28.67;45.79
13456;BME280;6800;50.940;6.940;2023-09-18T10:03:11;99833.53;;;29.43;44.29
13456;BME280;6800;50.940;6.940;2023-09-18T10:07:13;99833.16;;;29.69;42.79
13456;BME280;6800;50.940;6.940;2023-09-18T10:11:15;99826.94;;;30.72;41.23
13456;BME280;6800;50.940;6.940;2023-09-18T10:15:22;99822.72;;;31.33;39.14
13456;BME280;6800;50.940;6.940;2023-09-18T10:19:37;99817.72;;;31.25;39.37
13456;BME280;6800;50.940;6.940;2023-09-18T10:28:14;99836.81;;;33.43;35.25
13456;BME280;6800;50.940;6.940;2023-09-18T10:32:19;99834.78;;;35.77;31.37
13456;BME280;6800;50.940;6.940;2023-09-18T10:36:22;99827.16;;;35.59;31.05
13456;BME280;6800;50.940;6.940;2023-09-18T10:40:25;99834.16;;;35.20;32.04
13456;BME280;6800;50.940;6.940;2023-09-18T10:44:29;99842.94;;;35.97;30.22
13456;BME280;6800;50.940;6.940;2023-09-18T10:48:32;99837.75;;;35.71;31.02
13456;BME280;6800;50.940;6.940;2023-09-18T10:52:35;99845.91;;;35.76;30.34
13456;BME280;6800;50.940;6.940;2023-09-18T10:56:37;99843.13;;;35.20;30.98
13456;BME280;6800;50.940;6.940;2023-09-18T11:00:41;99843.22;;;34.32;32.20
13456;BME280;6800;50.940;6.940;2023-09-18T11:04:44;99843.19;;;36.06;29.80
13456;BME280;6800;50.940;6.940;2023-09-18T11:08:47;99829.06;;;35.74;29.68
13456;BME280;6800;50.940;6.940;2023-09-18T11:12:50;99827.19;;;36.89;28.29
13456;BME280;6800;50.940;6.940;2023-09-18T11:16:51;99829.47;;;36.61;28.05
13456;BME280;6800;50.940;6.940;2023-09-18T11:21:10;99836.38;;;35.93;28.38
13456;BME280;6800;50.940;6.940;2023-09-18T11:25:35;99839.03;;;37.18;26.80
13456;BME280;6800;50.940;6.940;2023-09-18T11:29:37;99834.97;;;36.46;28.02
13456;BME280;6800;50.940;6.940;2023-09-18T11:33:40;99843.13;;;37.15;26.59
13456;BME280;6800;50.940;6.940;2023-09-18T11:37:43;99842.38;;;35.85;28.71
13456;BME280;6800;50.940;6.940;2023-09-18T11:41:44;99840.41;;;36.31;27.88
13456;BME280;6800;50.940;6.940;2023-09-18T11:45:49;99826.34;;;33.25;32.71
13456;BME280;6800;50.940;6.940;2023-09-18T11:49:56;99817.16;;;34.73;30.96
13456;BME280;6800;50.940;6.940;2023-09-18T11:54:03;99811.44;;;33.80;31.42
13456;BME280;6800;50.940;6.940;2023-09-18T11:58:06;99808.44;;;34.19;30.90
13456;BME280;6800;50.940;6.940;2023-09-18T12:02:13;99803.31;;;34.74;29.82
13456;BME280;6800;50.940;6.940;2023-09-18T12:06:22;99806.19;;;33.69;31.29
13456;BME280;6800;50.940;6.940;2023-09-18T12:10:25;99795.75;;;32.97;32.51
13456;BME280;6800;50.940;6.940;2023-09-18T12:14:30;99802.47;;;32.13;33.46
13456;BME280;6800;50.940;6.940;2023-09-18T12:18:45;99795.03;;;32.42;33.08
13456;BME280;6800;50.940;6.940;2023-09-18T12:22:50;99796.53;;;32.98;31.47
13456;BME280;6800;50.940;6.940;2023-09-18T12:26:52;99795.78;;;33.51;30.95
13456;BME280;6800;50.940;6.940;2023-09-18T12:30:55;99782.53;;;33.01;31.74
13456;BME280;6800;50.940;6.940;2023-09-18T12:34:58;99787.94;;;32.79;32.34
13456;BME280;6800;50.940;6.940;2023-09-18T12:38:59;99776.84;;;32.54;32.60
13456;BME280;6800;50.940;6.940;2023-09-18T12:43:02;99786.59;;;32.17;33.15
13456;BME280;6800;50.940;6.940;2023-09-18T12:47:05;99777.97;;;31.48;33.56
13456;BME280;6800;50.940;6.940;2023-09-18T12:51:06;99774.28;;;32.04;33.49
13456;BME280;6800;50.940;6.940;2023-09-18T12:55:23;99767.31;;;31.42;34.06
13456;BME280;6800;50.940;6.940;2023-09-18T12:59:31;99766.22;;;31.93;32.84
13456;BME280;6800;50.940;6.940;2023-09-18T13:03:32;99768.78;;;31.83;32.35
13456;BME280;6800;50.940;6.940;2023-09-18T13:07:43;99760.63;;;31.61;33.23
13456;BME280;6800;50.940;6.940;2023-09-18T13:11:53;99765.16;;;31.27;33.12
13456;BME280;6800;50.940;6.940;2023-09-18T13:15:59;99765.66;;;31.41;32.14
13456;BME280;6800;50.940;6.940;2023-09-18T13:20:07;99780.25;;;31.56;32.56
13456;BME280;6800;50.940;6.940;2023-09-18T13:24:30;99767.25;;;31.70;32.47
13456;BME280;6800;50.940;6.940;2023-09-18T13:28:32;99770.31;;;31.29;32.38
13456;BME280;6800;50.940;6.940;2023-09-18T13:32:38;99770.94;;;31.64;31.65
13456;BME280;6800;50.940;6.940;2023-09-18T13:36:41;99768.44;;;31.79;31.78
13456;BME280;6800;50.940;6.940;2023-09-18T13:40:46;99764.34;;;31.93;31.55
13456;BME280;6800;50.940;6.940;2023-09-18T13:44:47;99746.00;;;32.12;31.23
13456;BME280;6800;50.940;6.940;2023-09-18T13:48:50;99755.31;;;32.21;31.76
13456;BME280;6800;50.940;6.940;2023-09-18T13:52:52;99746.06;;;32.17;30.83
13456;BME280;6800;50.940;6.940;2023-09-18T13:56:55;99748.88;;;32.05;31.15
13456;BME280;6800;50.940;6.940;2023-09-18T14:00:58;99748.97;;;32.10;30.92
13456;BME280;6800;50.940;6.940;2023-09-18T14:05:00;99750.88;;;31.43;32.03
13456;BME280;6800;50.940;6.940;2023-09-18T14:09:02;99743.78;;;32.09;30.31
13456;BME280;6800;50.940;6.940;2023-09-18T14:13:06;99747.91;;;31.78;31.18
13456;BME280;6800;50.940;6.940;2023-09-18T14:17:09;99738.31;;;31.49;31.20
13456;BME280;6800;50.940;6.940;2023-09-18T14:21:11;99734.50;;;32.00;30.75
13456;BME280;6800;50.940;6.940;2023-09-18T14:25:12;99723.56;;;32.11;30.47
13456;BME280;6800;50.940;6.940;2023-09-18T14:29:14;99723.56;;;32.11;30.46
13456;BME280;6800;50.940;6.940;2023-09-18T14:33:16;99726.91;;;31.64;30.85
13456;BME280;6800;50.940;6.940;2023-09-18T14:37:17;99728.38;;;31.71;31.89
13456;BME280;6800;50.940;6.940;2023-09-18T14:41:18;99718.06;;;31.68;31.53
13456;BME280;6800;50.940;6.940;2023-09-18T14:45:22;99713.56;;;31.74;31.87
13456;BME280;6800;50.940;6.940;2023-09-18T14:49:24;99716.28;;;31.24;32.19
13456;BME280;6800;50.940;6.940;2023-09-18T14:53:26;99714.00;;;31.49;31.91
13456;BME280;6800;50.940;6.940;2023-09-18T14:57:27;99717.84;;;31.53;31.49
13456;BME280;6800;50.940;6.940;2023-09-18T15:01:29;99719.53;;;31.26;32.19
13456;BME280;6800;50.940;6.940;2023-09-18T15:05:30;99716.47;;;30.89;31.94
13456;BME280;6800;50.940;6.940;2023-09-18T15:09:32;99710.00;;;30.90;32.13
13456;BME280;6800;50.940;6.940;2023-09-18T15:13:34;99710.16;;;30.83;31.90
13456;BME280;6800;50.940;6.940;2023-09-18T15:17:36;99705.28;;;30.69;32.09
13456;BME280;6800;50.940;6.940;2023-09-18T15:21:39;99696.88;;;30.94;31.88
13456;BME280;6800;50.940;6.940;2023-09-18T15:25:41;99691.50;;;30.82;31.76
13456;BME280;6800;50.940;6.940;2023-09-18T15:29:43;99698.75;;;31.10;31.83
13456;BME280;6800;50.940;6.940;2023-09-18T15:33:45;99698.59;;;31.00;31.29
13456;BME280;6800;50.940;6.940;2023-09-18T15:37:48;99694.69;;;31.24;31.44
13456;BME280;6800;50.940;6.940;2023-09-18T15:41:49;99690.09;;;31.08;31.77
13456;BME280;6800;50.940;6.940;2023-09-18T15:45:51;99683.94;;;30.39;32.30
13456;BME280;6800;50.940;6.940;2023-09-18T15:49:52;99679.44;;;30.56;32.01
13456;BME280;6800;50.940;6.940;2023-09-18T15:53:53;99683.84;;;30.91;32.20
13456;BME280;6800;50.940;6.940;2023-09-18T15:57:58;99686.41;;;30.97;32.05
13456;BME280;6800;50.940;6.940;2023-09-18T16:02:00;99689.19;;;30.74;32.17
13456;BME280;6800;50.940;6.940;2023-09-18T16:06:01;99683.34;;;30.49;32.62
13456;BME280;6800;50.940;6.940;2023-09-18T16:10:06;99688.94;;;31.04;32.18
13456;BME280;6800;50.940;6.940;2023-09-18T16:14:08;99697.09;;;30.64;32.73
13456;BME280;6800;50.940;6.940;2023-09-18T16:18:09;99702.06;;;30.55;32.79
13456;BME280;6800;50.940;6.940;2023-09-18T16:22:12;99697.53;;;30.44;32.84
13456;BME280;6800;50.940;6.940;2023-09-18T16:26:14;99702.50;;;30.13;33.79
13456;BME280;6800;50.940;6.940;2023-09-18T16:30:16;99704.00;;;30.20;33.72
13456;BME280;6800;50.940;6.940;2023-09-18T16:34:17;99708.94;;;30.12;34.24
13456;BME280;6800;50.940;6.940;2023-09-18T16:38:18;99710.53;;;30.47;33.39
13456;BME280;6800;50.940;6.940;2023-09-18T16:42:20;99728.06;;;29.87;34.66
13456;BME280;6800;50.940;6.940;2023-09-18T16:46:21;99733.34;;;30.05;33.75
13456;BME280;6800;50.940;6.940;2023-09-18T16:50:23;99725.13;;;30.00;34.29
13456;BME280;6800;50.940;6.940;2023-09-18T16:54:24;99726.78;;;29.78;34.90
13456;BME280;6800;50.940;6.940;2023-09-18T16:58:26;99728.19;;;29.92;34.83
13456;BME280;6800;50.940;6.940;2023-09-18T17:02:27;99732.16;;;29.78;35.08
13456;BME280;6800;50.940;6.940;2023-09-18T17:06:29;99723.75;;;29.86;34.67
13456;BME280;6800;50.940;6.940;2023-09-18T17:10:35;99714.59;;;29.52;35.51
13456;BME280;6800;50.940;6.940;2023-09-18T17:14:37;99725.13;;;29.65;35.26
13456;BME280;6800;50.940;6.940;2023-09-18T17:18:51;99723.28;;;29.54;35.25
13456;BME280;6800;50.940;6.940;2023-09-18T17:22:57;99722.66;;;29.41;35.46
13456;BME280;6800;50.940;6.940;2023-09-18T17:26:58;99715.03;;;29.38;35.77
13456;BME280;6800;50.940;6.940;2023-09-18T17:31:00;99704.19;;;29.33;36.11
13456;BME280;6800;50.940;6.940;2023-09-18T17:35:02;99696.00;;;29.39;35.98
13456;BME280;6800;50.940;6.940;2023-09-18T17:39:04;99693.03;;;29.17;36.17
13456;BME280;6800;50.940;6.940;2023-09-18T17:43:07;99713.03;;;29.33;35.60
13456;BME280;6800;50.940;6.940;2023-09-18T17:47:08;99709.25;;;29.11;36.15
13456;BME280;6800;50.940;6.940;2023-09-18T17:51:10;99722.03;;;29.27;36.55
13456;BME280;6800;50.940;6.940;2023-09-18T17:55:11;99721.72;;;29.35;36.37
13456;BME280;6800;50.940;6.940;2023-09-18T17:59:13;99731.88;;;29.21;36.55
13456;BME280;6800;50.940;6.940;2023-09-18T18:03:14;99733.75;;;28.91;36.96
13456;BME280;6800;50.940;6.940;2023-09-18T18:07:19;99741.59;;;29.34;36.38
13456;BME280;6800;50.940;6.940;2023-09-18T18:11:20;99807.81;;;29.47;36.61
13456;BME280;6800;50.940;6.940;2023-09-18T18:15:22;99850.44;;;27.80;38.92
13456;BME280;6800;50.940;6.940;2023-09-18T18:19:23;99871.47;;;27.08;43.44
13456;BME280;6800;50.940;6.940;2023-09-18T18:23:25;99880.91;;;25.54;48.69
13456;BME280;6800;50.940;6.940;2023-09-18T18:27:27;99893.97;;;25.36;52.14
13456;BME280;6800;50.940;6.940;2023-09-18T18:31:28;99894.25;;;24.88;55.08
13456;BME280;6800;50.940;6.940;2023-09-18T18:35:30;99899.84;;;24.37;58.13
13456;BME280;6800;50.940;6.940;2023-09-18T18:39:31;99896.34;;;24.37;59.11
13456;BME280;6800;50.940;6.940;2023-09-18T18:43:33;99891.94;;;24.23;60.26
13456;BME280;6800;50.940;6.940;2023-09-18T18:47:35;99887.81;;;24.20;60.87
13456;BME280;6800;50.940;6.940;2023-09-18T18:51:36;99877.66;;;24.30;61.01
13456;BME280;6800;50.940;6.940;2023-09-18T18:55:39;99879.66;;;24.00;60.67
13456;BME280;6800;50.940;6.940;2023-09-18T18:59:41;99892.19;;;23.79;61.09
13456;BME280;6800;50.940;6.940;2023-09-18T19:03:45;99899.78;;;23.82;60.13
13456;BME280;6800;50.940;6.940;2023-09-18T19:07:47;99905.84;;;24.18;59.81
13456;BME280;6800;50.940;6.940;2023-09-18T19:11:49;99903.66;;;24.00;59.88
13456;BME280;6800;50.940;6.940;2023-09-18T19:15:51;99912.59;;;23.72;59.52
13456;BME280;6800;50.940;6.940;2023-09-18T19:19:53;99907.53;;;23.98;58.29
13456;BME280;6800;50.940;6.940;2023-09-18T19:23:54;99910.06;;;23.85;59.53
13456;BME280;6800;50.940;6.940;2023-09-18T19:27:55;99910.44;;;23.82;59.67
13456;BME280;6800;50.940;6.940;2023-09-18T19:31:57;99903.69;;;23.86;59.20
13456;BME280;6800;50.940;6.940;2023-09-18T19:35:59;99901.44;;;23.83;59.07
13456;BME280;6800;50.940;6.940;2023-09-18T19:40:04;99906.44;;;23.92;59.42
13456;BME280;6800;50.940;6.940;2023-09-18T19:44:17;99914.75;;;23.62;59.66
13456;BME280;6800;50.940;6.940;2023-09-18T19:48:18;99927.69;;;23.86;59.19
13456;BME280;6800;50.940;6.940;2023-09-18T19:52:20;99931.28;;;24.14;58.29
13456;BME280;6800;50.940;6.940;2023-09-18T19:56:25;99925.78;;;24.01;58.11
13456;BME280;6800;50.940;6.940;2023-09-18T20:00:28;99932.47;;;23.90;58.25
13456;BME280;6800;50.940;6.940;2023-09-18T20:04:30;99926.44;;;23.82;58.33
13456;BME280;6800;50.940;6.940;2023-09-18T20:08:31;99934.31;;;23.90;58.65
13456;BME280;6800;50.940;6.940;2023-09-18T20:12:33;99934.69;;;23.87;58.49
13456;BME280;6800;50.940;6.940;2023-09-18T20:16:34;99944.97;;;24.32;57.79
13456;BME280;6800;50.940;6.940;2023-09-18T20:20:37;99952.72;;;24.27;57.56
13456;BME280;6800;50.940;6.940;2023-09-18T20:24:38;99961.25;;;24.16;57.57
13456;BME280;6800;50.940;6.940;2023-09-18T20:28:39;99957.56;;;23.96;58.07
13456;BME280;6800;50.940;6.940;2023-09-18T20:32:44;99955.41;;;24.06;58.64
13456;BME280;6800;50.940;6.940;2023-09-18T20:36:46;99962.28;;;24.15;58.26
13456;BME280;6800;50.940;6.940;2023-09-18T20:40:50;99958.81;;;24.00;58.31
13456;BME280;6800;50.940;6.940;2023-09-18T20:44:53;99970.34;;;24.22;57.77
13456;BME280;6800;50.940;6.940;2023-09-18T20:48:56;99974.06;;;24.27;57.99
13456;BME280;6800;50.940;6.940;2023-09-18T20:53:00;99967.81;;;23.78;58.99
13456;BME280;6800;50.940;6.940;2023-09-18T20:57:02;99972.94;;;23.94;58.11
13456;BME280;6800;50.940;6.940;2023-09-18T21:01:04;99980.13;;;24.15;57.92
13456;BME280;6800;50.940;6.940;2023-09-18T21:05:06;99984.63;;;24.14;57.32
13456;BME280;6800;50.940;6.940;2023-09-18T21:09:08;99986.34;;;24.22;57.17
13456;BME280;6800;50.940;6.940;2023-09-18T21:13:13;99988.69;;;24.10;57.92
13456;BME280;6800;50.940;6.940;2023-09-18T21:17:15;99993.88;;;24.18;57.02
13456;BME280;6800;50.940;6.940;2023-09-18T21:21:19;99996.31;;;24.34;56.90
13456;BME280;6800;50.940;6.940;2023-09-18T21:25:20;99993.09;;;24.03;57.75
13456;BME280;6800;50.940;6.940;2023-09-18T21:29:22;99996.41;;;24.26;57.54
13456;BME280;6800;50.940;6.940;2023-09-18T21:33:27;100003.94;;;24.16;58.17
13456;BME280;6800;50.940;6.940;2023-09-18T21:37:29;100006.41;;;24.39;57.40
13456;BME280;6800;50.940;6.940;2023-09-18T21:41:31;100005.72;;;24.30;56.75
13456;BME280;6800;50.940;6.940;2023-09-18T21:45:32;100012.66;;;24.52;56.36